Time;durP1;ratioP1;P1;durP2;ratioP2;P2;SDS_P1;SDS_P2;PMS_P1;PMS_P2;Temp;Humidity;BMP_temperature;BMP_pressure;BME280_temperature;BME280_humidity;BME280_pressure;Samples;Min_cycle;Max_cycle;Signal;HPM_P1;HPM_P2
2023/03/04 00:00:25;;;;;;;1.60;1.50;;;4.20;98.20;;;;;;5055060;28;20461;-74
2023/03/04 00:02:52;;;;;;;1.57;1.40;;;4.20;98.20;;;;;;5014386;28;20495;-74
2023/03/04 00:05:19;;;;;;;1.50;1.40;;;4.20;98.20;;;;;;5051023;28;20846;-74
2023/03/04 00:07:46;;;;;;;1.57;1.40;;;4.20;98.20;;;;;;5009825;28;20476;-74
2023/03/04 00:10:13;;;;;;;1.60;1.40;;;4.20;98.20;;;;;;5053096;28;20468;-75
2023/03/04 00:12:41;;;;;;;1.53;1.30;;;4.20;98.20;;;;;;5033908;28;20494;-75
2023/03/04 00:15:09;;;;;;;1.50;1.40;;;4.20;98.20;;;;;;5056817;28;20548;-74
2023/03/04 00:17:35;;;;;;;1.50;1.30;;;4.20;98.20;;;;;;5012239;28;20887;-74
2023/03/04 00:20:02;;;;;;;1.50;1.30;;;4.20;98.20;;;;;;5044025;28;20473;-74
2023/03/04 00:22:29;;;;;;;1.50;1.30;;;4.20;98.20;;;;;;5036202;28;20868;-74
2023/03/04 00:24:55;;;;;;;1.57;1.30;;;4.20;98.20;;;;;;5053390;28;20470;-75
2023/03/04 00:27:22;;;;;;;1.53;1.30;;;4.20;98.20;;;;;;5019386;28;20489;-74
2023/03/04 00:29:50;;;;;;;1.53;1.30;;;4.30;98.20;;;;;;5046962;28;20462;-74
2023/03/04 00:32:17;;;;;;;3.50;3.10;;;4.20;98.20;;;;;;5023625;28;20485;-74
2023/03/04 00:34:44;;;;;;;1.50;1.30;;;4.30;98.20;;;;;;5050000;28;20490;-75
2023/03/04 00:37:10;;;;;;;1.53;1.40;;;4.30;98.20;;;;;;5025833;28;20486;-74
2023/03/04 00:39:37;;;;;;;1.57;1.40;;;4.30;98.20;;;;;;5043016;28;20469;-74
2023/03/04 00:42:04;;;;;;;1.50;1.30;;;4.30;98.20;;;;;;5047103;28;20998;-74
2023/03/04 00:44:31;;;;;;;1.53;1.30;;;4.30;98.20;;;;;;5043194;28;20918;-73
2023/03/04 00:46:59;;;;;;;1.57;1.30;;;4.30;98.20;;;;;;5035738;28;20486;-73
2023/03/04 00:49:26;;;;;;;1.53;1.30;;;4.30;98.20;;;;;;5051337;28;20465;-73
2023/03/04 00:51:53;;;;;;;1.57;1.33;;;4.30;98.20;;;;;;5026231;28;20495;-74
2023/03/04 00:54:20;;;;;;;1.50;1.30;;;4.30;98.20;;;;;;5038347;28;20841;-73
2023/03/04 00:56:47;;;;;;;1.60;1.30;;;4.30;98.20;;;;;;5028356;28;20545;-74
2023/03/04 00:59:14;;;;;;;1.50;1.30;;;4.30;98.20;;;;;;5037316;28;20460;-73
2023/03/04 01:01:40;;;;;;;1.60;1.50;;;4.30;98.20;;;;;;5029657;28;21065;-73
2023/03/04 01:04:08;;;;;;;1.57;1.30;;;4.30;98.20;;;;;;5038597;28;20481;-74
2023/03/04 01:06:35;;;;;;;1.57;1.30;;;4.30;98.20;;;;;;5020223;28;20476;-74
2023/03/04 01:09:02;;;;;;;1.57;1.40;;;4.30;98.20;;;;;;5030530;28;20965;-73
2023/03/04 01:11:28;;;;;;;1.53;1.30;;;4.30;98.20;;;;;;5036019;28;20477;-74
2023/03/04 01:13:55;;;;;;;1.57;1.30;;;4.30;98.20;;;;;;5049647;28;20474;-74
2023/03/04 01:16:22;;;;;;;1.60;1.40;;;4.30;98.20;;;;;;5031172;28;20475;-74
2023/03/04 01:18:48;;;;;;;1.60;1.40;;;4.40;98.20;;;;;;5024913;28;20565;-74
2023/03/04 01:21:16;;;;;;;1.60;1.30;;;4.30;98.20;;;;;;5039154;28;20482;-73
2023/03/04 01:23:43;;;;;;;1.57;1.30;;;4.40;98.20;;;;;;5024872;28;20983;-74
2023/03/04 01:26:10;;;;;;;1.60;1.40;;;4.40;98.20;;;;;;5028546;28;20505;-73
2023/03/04 01:28:37;;;;;;;1.57;1.40;;;4.40;98.20;;;;;;5031443;28;20466;-74
2023/03/04 01:31:04;;;;;;;1.60;1.50;;;4.40;98.20;;;;;;5041857;28;20912;-73
2023/03/04 01:33:31;;;;;;;1.57;1.40;;;4.40;98.20;;;;;;5031483;28;20488;-73
2023/03/04 01:35:58;;;;;;;1.50;1.30;;;4.40;98.20;;;;;;5038556;28;20490;-74
2023/03/04 01:38:26;;;;;;;1.53;1.30;;;4.40;98.20;;;;;;5044173;28;20517;-73
2023/03/04 01:40:53;;;;;;;1.60;1.30;;;4.40;98.20;;;;;;5044755;28;20489;-74
2023/03/04 01:43:24;;;;;;;1.50;1.30;;;4.40;98.20;;;;;;5028552;28;20487;-73
2023/03/04 01:45:52;;;;;;;1.53;1.30;;;4.40;98.20;;;;;;5031772;28;20467;-73
2023/03/04 01:48:22;;;;;;;1.57;1.40;;;4.40;98.20;;;;;;5018216;28;20451;-73
2023/03/04 01:50:48;;;;;;;1.50;1.30;;;4.40;98.20;;;;;;5046650;28;20462;-73
2023/03/04 01:53:19;;;;;;;1.60;1.30;;;4.40;98.20;;;;;;5025555;28;20488;-74
2023/03/04 01:55:47;;;;;;;1.53;1.30;;;4.40;98.20;;;;;;5045886;28;20875;-74
2023/03/04 01:58:14;;;;;;;1.60;1.47;;;4.50;98.20;;;;;;5024998;28;20485;-74
2023/03/04 02:00:41;;;;;;;1.60;1.50;;;4.50;98.20;;;;;;5050427;28;20666;-73
2023/03/04 02:03:11;;;;;;;1.50;1.30;;;4.50;98.20;;;;;;5037414;28;20488;-74
2023/03/04 02:05:40;;;;;;;1.57;1.40;;;4.50;98.20;;;;;;5050040;28;21082;-74
2023/03/04 02:08:09;;;;;;;1.57;1.30;;;4.50;98.20;;;;;;5017996;28;20476;-73
2023/03/04 02:10:35;;;;;;;1.60;1.30;;;4.50;98.20;;;;;;5056996;28;20463;-74
2023/03/04 02:13:04;;;;;;;1.57;1.30;;;4.50;98.20;;;;;;5045501;28;20490;-74
2023/03/04 02:15:31;;;;;;;1.60;1.30;;;4.50;98.20;;;;;;5054021;28;20458;-73
2023/03/04 02:17:58;;;;;;;1.60;1.40;;;4.50;98.20;;;;;;5015590;28;20472;-74
2023/03/04 02:20:42;;;;;;;1.57;1.40;;;4.50;98.20;;;;;;5056123;28;20872;-76
2023/03/04 02:23:15;;;;;;;1.60;1.50;;;4.50;98.20;;;;;;5036254;28;20481;-75
2023/03/04 02:25:47;;;;;;;1.60;1.40;;;4.50;98.20;;;;;;5051749;28;20843;-75
2023/03/04 02:28:16;;;;;;;1.53;1.30;;;4.50;98.20;;;;;;5029298;28;20473;-76
2023/03/04 02:30:43;;;;;;;1.57;1.30;;;4.50;98.20;;;;;;5055639;28;20958;-74
2023/03/04 02:33:16;;;;;;;1.87;1.70;;;4.50;98.20;;;;;;5041258;28;21201;-74
2023/03/04 02:35:43;;;;;;;1.50;1.30;;;4.50;98.20;;;;;;5050306;28;20943;-75
2023/03/04 02:38:11;;;;;;;1.53;1.30;;;4.50;98.20;;;;;;5036615;28;20470;-74
2023/03/04 02:40:40;;;;;;;1.60;1.47;;;4.50;98.20;;;;;;5059786;28;20463;-74
2023/03/04 02:43:11;;;;;;;1.60;1.33;;;4.50;98.20;;;;;;5043917;28;20481;-74
2023/03/04 02:45:42;;;;;;;1.57;1.33;;;4.50;98.20;;;;;;5058531;28;20461;-74
2023/03/04 02:48:09;;;;;;;1.57;1.30;;;4.50;98.20;;;;;;5047960;28;20473;-74
2023/03/04 02:50:40;;;;;;;1.53;1.30;;;4.50;98.20;;;;;;5058449;28;20540;-74
2023/03/04 02:53:07;;;;;;;1.57;1.30;;;4.60;98.20;;;;;;5012532;28;20483;-74
2023/03/04 02:55:34;;;;;;;1.60;1.40;;;4.60;98.20;;;;;;5049706;28;20500;-74
2023/03/04 02:58:00;;;;;;;1.53;1.30;;;4.60;98.20;;;;;;5040271;28;20868;-73
2023/03/04 03:00:28;;;;;;;1.60;1.30;;;4.60;98.20;;;;;;5051761;28;20472;-73
2023/03/04 03:02:56;;;;;;;1.57;1.33;;;4.60;98.20;;;;;;5017407;28;20498;-73
2023/03/04 03:05:24;;;;;;;1.60;1.43;;;4.60;98.20;;;;;;5052347;28;20467;-73
2023/03/04 03:07:51;;;;;;;1.60;1.40;;;4.60;98.20;;;;;;5009918;28;20483;-73
2023/03/04 03:10:18;;;;;;;1.60;1.30;;;4.60;98.20;;;;;;5053969;28;20951;-73
2023/03/04 03:12:45;;;;;;;1.60;1.30;;;4.60;98.20;;;;;;5043170;28;20557;-73
2023/03/04 03:15:12;;;;;;;1.50;1.30;;;4.60;98.20;;;;;;5052602;28;20461;-73
2023/03/04 03:17:39;;;;;;;1.53;1.30;;;4.60;98.20;;;;;;5015773;28;20484;-73
2023/03/04 03:20:09;;;;;;;1.57;1.30;;;4.60;98.20;;;;;;5057294;28;20485;-73
2023/03/04 03:22:36;;;;;;;1.53;1.30;;;4.60;98.20;;;;;;5014994;28;21008;-72
2023/03/04 03:25:03;;;;;;;1.60;1.40;;;4.60;98.20;;;;;;5051956;28;20469;-73
2023/03/04 03:27:30;;;;;;;1.60;1.40;;;4.60;98.20;;;;;;5017877;28;20848;-73
2023/03/04 03:29:56;;;;;;;1.57;1.30;;;4.60;98.20;;;;;;5045587;28;20465;-73
2023/03/04 03:32:23;;;;;;;1.60;1.30;;;4.60;98.20;;;;;;5018520;28;20534;-73
2023/03/04 03:34:50;;;;;;;1.60;1.30;;;4.60;98.20;;;;;;5048146;28;20839;-73
2023/03/04 03:37:18;;;;;;;1.60;1.30;;;4.60;98.20;;;;;;5031714;28;20490;-73
2023/03/04 03:39:45;;;;;;;1.53;1.30;;;4.60;98.20;;;;;;5049136;28;20493;-74
2023/03/04 03:42:12;;;;;;;1.57;1.30;;;4.60;98.20;;;;;;5045121;28;20884;-73
2023/03/04 03:44:38;;;;;;;1.60;1.40;;;4.60;98.20;;;;;;5051665;28;20470;-73
2023/03/04 03:47:06;;;;;;;1.60;1.30;;;4.70;98.20;;;;;;5025869;28;20477;-73
2023/03/04 03:49:32;;;;;;;1.60;1.50;;;4.70;98.20;;;;;;5042982;28;20458;-73
2023/03/04 03:51:59;;;;;;;1.57;1.30;;;4.70;98.20;;;;;;5029781;28;20866;-73
2023/03/04 03:54:27;;;;;;;1.57;1.30;;;4.70;98.20;;;;;;5037634;28;20783;-73
2023/03/04 03:56:54;;;;;;;1.57;1.30;;;4.70;98.20;;;;;;5026008;28;20502;-74
2023/03/04 03:59:22;;;;;;;1.57;1.37;;;4.70;98.20;;;;;;5044818;28;20489;-73
2023/03/04 04:01:49;;;;;;;1.53;1.30;;;4.70;98.20;;;;;;5034786;28;20483;-73
2023/03/04 04:04:16;;;;;;;1.60;1.30;;;4.70;98.20;;;;;;5041844;28;20486;-73
2023/03/04 04:06:43;;;;;;;1.60;1.40;;;4.70;98.20;;;;;;5025469;28;20494;-73
2023/03/04 04:09:10;;;;;;;1.60;1.50;;;4.70;98.20;;;;;;5030367;28;20817;-73
2023/03/04 04:11:38;;;;;;;1.60;1.30;;;4.70;98.20;;;;;;5029189;28;20479;-73
2023/03/04 04:14:04;;;;;;;1.60;1.30;;;4.70;98.20;;;;;;5034432;28;20500;-73
2023/03/04 04:16:31;;;;;;;1.60;1.40;;;4.70;98.20;;;;;;5026001;28;20981;-73
2023/03/04 04:18:58;;;;;;;1.60;1.40;;;4.70;98.20;;;;;;5033962;28;20490;-73
2023/03/04 04:21:25;;;;;;;1.60;1.50;;;4.70;98.20;;;;;;5030607;28;20487;-72
2023/03/04 04:23:51;;;;;;;1.70;1.60;;;4.80;98.20;;;;;;5044501;28;20504;-73
2023/03/04 04:26:18;;;;;;;1.53;1.30;;;4.80;98.20;;;;;;5044085;28;20480;-73
2023/03/04 04:28:46;;;;;;;1.70;1.60;;;4.80;98.20;;;;;;5050356;28;20621;-73
2023/03/04 04:31:13;;;;;;;1.57;1.20;;;4.80;98.20;;;;;;5033169;28;20993;-73
2023/03/04 04:33:40;;;;;;;1.53;1.30;;;4.80;98.20;;;;;;5026551;28;20683;-72
2023/03/04 04:36:08;;;;;;;1.50;1.30;;;4.80;98.20;;;;;;5035850;28;20828;-72
2023/03/04 04:38:34;;;;;;;1.57;1.40;;;4.80;98.20;;;;;;5046765;28;20490;-73
2023/03/04 04:41:01;;;;;;;1.60;1.50;;;4.80;98.20;;;;;;5041375;28;20466;-73
2023/03/04 04:43:28;;;;;;;1.60;1.30;;;4.90;98.20;;;;;;5037667;28;20489;-73
2023/03/04 04:45:59;;;;;;;1.60;1.40;;;4.90;98.20;;;;;;5045842;28;20461;-73
2023/03/04 04:48:26;;;;;;;1.60;1.30;;;4.90;98.20;;;;;;5052068;28;20822;-73
2023/03/04 04:50:55;;;;;;;1.60;1.40;;;4.90;98.20;;;;;;5042164;28;20466;-73
2023/03/04 04:53:22;;;;;;;1.57;1.30;;;4.90;98.20;;;;;;5044980;28;20900;-73
2023/03/04 04:55:49;;;;;;;1.50;1.33;;;4.90;98.20;;;;;;5049910;28;20853;-73
2023/03/04 04:58:16;;;;;;;1.50;1.30;;;4.90;98.20;;;;;;5047061;28;20465;-73
2023/03/04 05:00:42;;;;;;;1.50;1.30;;;4.90;98.20;;;;;;5056983;28;20462;-73
2023/03/04 05:03:10;;;;;;;1.60;1.30;;;4.90;98.20;;;;;;5021253;28;20850;-73
2023/03/04 05:05:37;;;;;;;1.60;1.47;;;4.90;98.20;;;;;;5047283;28;20466;-73
2023/03/04 05:08:04;;;;;;;1.60;1.40;;;4.90;98.20;;;;;;5033916;28;20482;-73
2023/03/04 05:10:31;;;;;;;1.60;1.23;;;4.90;98.20;;;;;;5053066;28;20457;-73
2023/03/04 05:12:58;;;;;;;1.60;1.30;;;4.90;98.20;;;;;;5036284;28;20544;-73
2023/03/04 05:15:25;;;;;;;1.60;1.30;;;4.90;98.20;;;;;;5043299;28;20473;-73
2023/03/04 05:17:52;;;;;;;1.60;1.37;;;4.90;98.20;;;;;;5005437;28;20527;-73
2023/03/04 05:20:22;;;;;;;1.60;1.40;;;4.90;98.20;;;;;;5055022;28;20510;-73
2023/03/04 05:22:49;;;;;;;1.53;1.30;;;4.90;98.20;;;;;;5037315;28;20565;-73
2023/03/04 05:25:16;;;;;;;1.60;1.30;;;4.90;98.20;;;;;;5051254;28;20464;-73
2023/03/04 05:27:42;;;;;;;1.57;1.30;;;5.00;98.20;;;;;;5035303;28;20501;-73
2023/03/04 05:30:11;;;;;;;1.60;1.33;;;5.00;98.20;;;;;;5056912;28;20460;-73
2023/03/04 05:32:38;;;;;;;1.50;1.20;;;5.00;98.20;;;;;;5044871;28;20477;-73
2023/03/04 05:35:05;;;;;;;1.60;1.40;;;5.00;98.20;;;;;;5060293;28;20473;-73
2023/03/04 05:37:33;;;;;;;1.60;1.37;;;5.00;98.20;;;;;;5041179;28;20955;-73
2023/03/04 05:40:00;;;;;;;1.50;1.30;;;5.00;98.20;;;;;;5052591;28;20486;-73
2023/03/04 05:42:27;;;;;;;1.57;1.30;;;5.00;98.20;;;;;;5039126;28;20489;-73
2023/03/04 05:44:53;;;;;;;1.60;1.30;;;5.00;98.20;;;;;;5054001;28;20453;-73
2023/03/04 05:47:20;;;;;;;1.60;1.30;;;5.00;98.20;;;;;;5038791;28;20702;-73
2023/03/04 05:49:47;;;;;;;1.57;1.30;;;5.00;98.20;;;;;;5056679;28;20962;-73
2023/03/04 05:52:14;;;;;;;1.60;1.40;;;5.00;98.20;;;;;;5030330;28;20845;-73
2023/03/04 05:54:42;;;;;;;1.60;1.30;;;5.00;98.20;;;;;;5054555;28;20460;-75
2023/03/04 05:57:09;;;;;;;1.60;1.40;;;5.00;98.20;;;;;;5043872;28;20482;-75
2023/03/04 05:59:35;;;;;;;1.60;1.30;;;5.00;98.20;;;;;;5059173;28;21032;-73
2023/03/04 06:02:02;;;;;;;1.60;1.50;;;5.00;98.20;;;;;;5041446;28;20477;-74
2023/03/04 06:04:29;;;;;;;1.77;1.67;;;5.00;98.20;;;;;;5054795;28;20481;-73
2023/03/04 06:06:55;;;;;;;1.60;1.40;;;5.00;98.20;;;;;;5046612;28;20473;-73
2023/03/04 06:09:23;;;;;;;1.57;1.30;;;5.00;98.20;;;;;;5057315;28;20453;-72
2023/03/04 06:11:51;;;;;;;1.60;1.40;;;5.00;98.20;;;;;;5039783;28;20493;-73
2023/03/04 06:14:18;;;;;;;1.60;1.40;;;5.00;98.20;;;;;;5048816;28;20484;-72
2023/03/04 06:16:45;;;;;;;1.60;1.50;;;5.00;98.20;;;;;;5028397;28;20500;-76
2023/03/04 06:19:11;;;;;;;1.50;1.30;;;5.00;98.20;;;;;;5082691;23;20495;-80
2023/03/04 06:21:38;;;;;;;1.50;1.30;;;5.00;98.20;;;;;;5079046;28;20506;-79
2023/03/04 06:24:06;;;;;;;1.60;1.50;;;5.00;98.20;;;;;;5087940;28;20460;-80
2023/03/04 06:26:32;;;;;;;1.60;1.40;;;5.10;98.20;;;;;;5071397;28;20528;-79
2023/03/04 06:29:00;;;;;;;1.60;1.50;;;5.10;98.20;;;;;;5091945;28;20479;-79
2023/03/04 06:31:27;;;;;;;1.60;1.50;;;5.10;98.20;;;;;;5071188;28;20472;-79
2023/03/04 06:33:54;;;;;;;1.50;1.30;;;5.10;98.20;;;;;;5087192;28;20452;-79
2023/03/04 06:36:20;;;;;;;1.53;1.30;;;5.10;98.20;;;;;;5086149;28;20480;-80
2023/03/04 06:38:47;;;;;;;1.57;1.20;;;5.10;98.20;;;;;;5097687;28;20488;-79
2023/03/04 06:41:14;;;;;;;1.60;1.20;;;5.10;98.20;;;;;;5077376;28;20563;-79
2023/03/04 06:43:41;;;;;;;1.60;1.43;;;5.10;98.20;;;;;;5088087;28;20567;-79
2023/03/04 06:46:09;;;;;;;1.60;1.47;;;5.10;98.20;;;;;;5078217;28;20481;-82
2023/03/04 06:48:36;;;;;;;1.60;1.50;;;5.10;98.20;;;;;;5095117;28;20484;-81
2023/03/04 06:51:06;;;;;;;1.60;1.40;;;5.10;98.20;;;;;;5077611;28;20456;-79
2023/03/04 06:53:33;;;;;;;1.50;1.20;;;5.10;98.20;;;;;;5089054;28;20488;-79
2023/03/04 06:56:00;;;;;;;1.60;1.40;;;5.10;98.20;;;;;;5080468;28;20461;-84
2023/03/04 06:58:27;;;;;;;1.50;1.30;;;5.10;98.20;;;;;;5094620;28;20476;-80
2023/03/04 07:00:53;;;;;;;1.57;1.37;;;5.10;98.20;;;;;;5082563;28;20480;-80
2023/03/04 07:03:22;;;;;;;1.53;1.30;;;5.10;98.20;;;;;;5094097;28;20460;-81
2023/03/04 07:05:49;;;;;;;1.60;1.30;;;5.10;98.20;;;;;;5083051;28;20464;-81
2023/03/04 07:08:16;;;;;;;1.60;1.40;;;5.10;98.20;;;;;;5093738;28;20483;-83
2023/03/04 07:10:42;;;;;;;1.60;1.30;;;5.10;98.20;;;;;;5097710;28;20504;-80
2023/03/04 07:13:09;;;;;;;1.53;1.30;;;5.20;98.20;;;;;;5082926;28;20559;-80
2023/03/04 07:15:37;;;;;;;1.53;1.30;;;5.20;98.20;;;;;;5093528;28;20480;-81
2023/03/04 07:18:04;;;;;;;1.60;1.40;;;5.20;98.20;;;;;;5080307;28;20979;-80
2023/03/04 07:20:32;;;;;;;1.60;1.50;;;5.20;98.20;;;;;;5094598;28;20491;-81
2023/03/04 07:22:59;;;;;;;1.60;1.40;;;5.20;98.20;;;;;;5081421;28;20559;-80
2023/03/04 07:25:26;;;;;;;1.57;1.30;;;5.20;98.20;;;;;;5085740;28;20458;-81
2023/03/04 07:27:53;;;;;;;1.57;1.40;;;5.30;98.20;;;;;;5071482;28;20771;-78
2023/03/04 07:30:20;;;;;;;1.57;1.30;;;5.30;98.20;;;;;;5082827;28;20956;-78
2023/03/04 07:32:46;;;;;;;1.57;1.23;;;5.30;98.20;;;;;;5077043;28;20488;-78
2023/03/04 07:35:13;;;;;;;1.60;1.40;;;5.30;98.20;;;;;;5088720;28;20972;-78
2023/03/04 07:37:41;;;;;;;1.50;1.20;;;5.30;98.20;;;;;;5073702;28;20485;-78
2023/03/04 07:40:09;;;;;;;1.60;1.30;;;5.30;98.20;;;;;;5074943;28;20492;-78
2023/03/04 07:42:36;;;;;;;1.60;1.47;;;5.40;98.20;;;;;;5068999;28;20511;-83
2023/03/04 07:45:04;;;;;;;1.57;1.30;;;5.40;98.20;;;;;;5080698;28;20589;-83
2023/03/04 07:47:31;;;;;;;1.57;1.30;;;5.40;98.20;;;;;;5070773;28;20485;-79
2023/03/04 07:49:57;;;;;;;1.53;1.30;;;5.40;98.20;;;;;;5081065;28;20453;-82
2023/03/04 07:52:24;;;;;;;1.50;1.30;;;5.40;98.20;;;;;;5071072;28;20473;-80
2023/03/04 07:54:52;;;;;;;1.60;1.40;;;5.40;98.20;;;;;;5092716;28;20460;-81
2023/03/04 07:57:19;;;;;;;1.57;1.20;;;5.40;98.20;;;;;;5073988;28;20487;-81
2023/03/04 07:59:46;;;;;;;1.67;1.57;;;5.50;98.20;;;;;;5092048;28;20491;-80
2023/03/04 08:02:14;;;;;;;1.60;1.30;;;5.50;98.20;;;;;;5081500;28;20540;-79
2023/03/04 08:04:40;;;;;;;1.60;1.40;;;5.50;98.20;;;;;;5086798;28;20514;-79
2023/03/04 08:07:07;;;;;;;1.60;1.40;;;5.50;98.20;;;;;;5076821;28;20480;-78
2023/03/04 08:09:34;;;;;;;1.60;1.30;;;5.50;98.20;;;;;;5079282;28;20454;-80
2023/03/04 08:12:02;;;;;;;1.60;1.50;;;5.50;98.20;;;;;;5068673;28;20503;-79
2023/03/04 08:14:29;;;;;;;1.57;1.30;;;5.50;98.20;;;;;;5077448;28;20457;-78
2023/03/04 08:16:56;;;;;;;1.57;1.20;;;5.50;98.20;;;;;;5068554;28;20492;-78
2023/03/04 08:19:22;;;;;;;1.50;1.30;;;5.50;98.20;;;;;;5086846;28;20945;-79
2023/03/04 08:21:49;;;;;;;1.50;1.23;;;5.60;98.20;;;;;;5075485;28;20485;-79
2023/03/04 08:24:16;;;;;;;1.53;1.33;;;5.60;98.20;;;;;;5084578;28;20785;-79
2023/03/04 08:26:45;;;;;;;1.57;1.33;;;5.60;98.20;;;;;;5076255;28;20492;-80
2023/03/04 08:29:19;;;;;;;1.57;1.30;;;5.60;98.20;;;;;;5071557;28;20477;-79
2023/03/04 08:31:46;;;;;;;1.60;1.30;;;5.70;98.20;;;;;;5076549;28;20545;-79
2023/03/04 08:34:14;;;;;;;1.60;1.23;;;5.70;98.20;;;;;;5088785;28;20607;-80
2023/03/04 08:36:42;;;;;;;1.53;1.20;;;5.80;98.20;;;;;;5078422;28;20515;-79
2023/03/04 08:39:11;;;;;;;1.60;1.30;;;5.90;98.20;;;;;;5086475;28;20477;-80
2023/03/04 08:41:38;;;;;;;1.60;1.50;;;5.90;98.20;;;;;;5074583;28;20477;-80
2023/03/04 08:44:07;;;;;;;1.60;1.30;;;5.90;98.20;;;;;;5087974;28;20491;-79
2023/03/04 08:46:35;;;;;;;1.60;1.30;;;5.90;98.20;;;;;;5075971;28;20594;-79
2023/03/04 08:49:02;;;;;;;1.60;1.30;;;6.00;98.20;;;;;;5086087;28;20481;-79
2023/03/04 08:51:29;;;;;;;1.50;1.30;;;6.00;98.20;;;;;;5071855;28;20487;-78
2023/03/04 08:53:56;;;;;;;1.60;1.50;;;6.10;98.20;;;;;;5082368;28;20465;-80
2023/03/04 08:56:22;;;;;;;1.60;1.30;;;6.20;98.20;;;;;;5065506;28;20468;-79
2023/03/04 08:58:49;;;;;;;1.60;1.27;;;6.30;98.20;;;;;;5082657;28;20472;-78
2023/03/04 09:01:16;;;;;;;1.57;1.30;;;6.30;98.20;;;;;;5075579;28;20915;-78
2023/03/04 09:03:45;;;;;;;1.60;1.30;;;6.40;98.20;;;;;;5076082;28;20461;-79
2023/03/04 09:06:14;;;;;;;1.60;1.30;;;6.50;98.20;;;;;;5076434;28;20614;-78
2023/03/04 09:08:42;;;;;;;1.60;1.30;;;6.60;98.20;;;;;;5096706;28;20476;-82
2023/03/04 09:11:09;;;;;;;1.57;1.30;;;6.80;98.20;;;;;;5083629;28;20512;-81
2023/03/04 09:13:36;;;;;;;1.60;1.30;;;6.90;98.20;;;;;;5087573;28;20459;-81
2023/03/04 09:16:04;;;;;;;1.60;1.30;;;7.00;98.20;;;;;;5081173;28;20855;-81
2023/03/04 09:18:30;;;;;;;1.60;1.40;;;7.10;98.20;;;;;;5083659;28;20492;-80
2023/03/04 09:20:59;;;;;;;1.53;1.20;;;7.20;98.20;;;;;;5085012;28;20489;-80
2023/03/04 09:23:25;;;;;;;1.60;1.43;;;7.20;98.20;;;;;;5096600;28;20464;-79
2023/03/04 09:25:52;;;;;;;1.50;1.20;;;7.30;98.20;;;;;;5084390;28;20459;-82
2023/03/04 09:28:20;;;;;;;1.60;1.20;;;7.30;98.20;;;;;;5085447;28;21019;-79
2023/03/04 09:30:47;;;;;;;1.50;1.20;;;7.40;98.20;;;;;;5089750;28;20459;-77
2023/03/04 09:33:14;;;;;;;1.53;1.20;;;7.50;98.20;;;;;;5079830;28;20979;-79
2023/03/04 09:35:41;;;;;;;1.50;1.20;;;7.50;98.20;;;;;;5084749;28;20965;-80
2023/03/04 09:38:10;;;;;;;1.57;1.20;;;7.60;98.20;;;;;;5079322;28;20491;-79
2023/03/04 09:40:40;;;;;;;1.53;1.20;;;7.60;98.20;;;;;;5101788;28;20601;-79
2023/03/04 09:43:16;;;;;;;1.53;1.20;;;7.60;98.20;;;;;;5077161;28;21090;-79
2023/03/04 09:45:48;;;;;;;1.60;1.30;;;7.50;98.20;;;;;;5098793;28;20452;-79
2023/03/04 09:48:18;;;;;;;1.60;1.40;;;7.50;98.20;;;;;;5061675;28;20483;-78
2023/03/04 09:50:54;;;;;;;1.50;1.10;;;7.60;98.20;;;;;;5088606;28;20456;-77
2023/03/04 09:53:27;;;;;;;1.60;1.40;;;7.60;98.20;;;;;;5056938;28;20487;-76
2023/03/04 09:55:54;;;;;;;1.53;1.20;;;7.50;98.20;;;;;;5079788;28;20541;-76
2023/03/04 09:58:35;;;;;;;1.60;1.30;;;7.50;98.20;;;;;;5074521;28;20472;-76
2023/03/04 10:01:10;;;;;;;1.60;1.20;;;7.50;98.20;;;;;;5078260;28;20484;-76
2023/03/04 10:03:43;;;;;;;1.53;1.20;;;7.40;98.20;;;;;;5092316;28;20458;-79
2023/03/04 10:06:13;;;;;;;1.50;1.20;;;7.40;98.20;;;;;;5076969;28;20481;-76
2023/03/04 10:08:51;;;;;;;1.60;1.20;;;7.30;98.20;;;;;;5082565;28;21038;-79
2023/03/04 10:11:23;;;;;;;1.60;1.30;;;7.30;98.20;;;;;;5073974;28;21024;-77
2023/03/04 10:13:57;;;;;;;1.57;1.20;;;7.40;98.20;;;;;;5083437;28;20456;-79
2023/03/04 10:16:30;;;;;;;1.50;1.20;;;7.40;98.20;;;;;;5065572;28;21416;-79
2023/03/04 10:19:02;;;;;;;1.50;1.20;;;7.50;98.20;;;;;;5089245;28;20490;-78
2023/03/04 10:21:34;;;;;;;1.53;1.27;;;7.60;98.20;;;;;;5078061;28;20488;-79
2023/03/04 10:24:10;;;;;;;1.50;1.20;;;7.50;98.20;;;;;;5090611;28;20464;-79
2023/03/04 10:26:38;;;;;;;1.57;1.20;;;7.50;98.20;;;;;;5072700;28;20484;-78
2023/03/04 10:29:08;;;;;;;1.60;1.30;;;7.50;98.20;;;;;;5084706;28;20491;-79
2023/03/04 10:31:37;;;;;;;1.57;1.20;;;7.60;98.20;;;;;;5071249;28;20474;-79
2023/03/04 10:34:04;;;;;;;1.60;1.30;;;7.60;98.20;;;;;;5085069;28;20474;-79
2023/03/04 10:36:44;;;;;;;1.50;1.13;;;7.70;98.20;;;;;;5071523;28;21026;-79
2023/03/04 10:39:16;;;;;;;1.53;1.20;;;7.70;98.20;;;;;;5087323;28;20480;-81
2023/03/04 10:41:45;;;;;;;1.53;1.20;;;7.80;98.20;;;;;;5078732;28;20502;-80
2023/03/04 10:44:17;;;;;;;1.50;1.17;;;7.90;98.20;;;;;;5086749;28;20459;-81
2023/03/04 10:46:45;;;;;;;1.57;1.20;;;8.00;98.20;;;;;;5076730;28;20472;-83
2023/03/04 10:49:14;;;;;;;1.50;1.10;;;8.00;98.20;;;;;;5090982;28;20480;-81
2023/03/04 10:51:46;;;;;;;1.53;1.20;;;8.00;98.20;;;;;;5081828;28;20678;-82
2023/03/04 10:54:26;;;;;;;1.50;1.10;;;8.00;98.20;;;;;;5094606;28;20466;-81
2023/03/04 10:57:01;;;;;;;1.60;1.20;;;8.20;98.20;;;;;;5072020;28;20495;-80
2023/03/04 10:59:49;;;;;;;1.57;1.20;;;8.30;98.20;;;;;;5084639;28;20488;-81
2023/03/04 11:02:22;;;;;;;1.50;1.20;;;8.40;98.20;;;;;;5072760;28;20477;-84
2023/03/04 11:04:55;;;;;;;1.50;1.20;;;8.40;98.20;;;;;;5088161;28;20538;-77
2023/03/04 11:07:25;;;;;;;1.60;1.30;;;8.40;98.20;;;;;;5074218;28;20568;-78
2023/03/04 11:12:36;;;;;;;1.53;1.20;;;8.30;98.20;;;;;;5051027;28;20465;-79
2023/03/04 11:15:03;;;;;;;1.53;1.20;;;8.20;98.20;;;;;;5092891;28;20462;-81
2023/03/04 11:17:42;;;;;;;1.57;1.10;;;8.20;98.20;;;;;;5072317;28;20476;-79
2023/03/04 11:20:16;;;;;;;1.60;1.20;;;8.20;98.20;;;;;;5087909;28;20547;-79
2023/03/04 11:22:46;;;;;;;2.80;2.60;;;8.20;98.20;;;;;;5075758;28;20484;-80
2023/03/04 11:25:24;;;;;;;1.60;1.20;;;8.20;98.20;;;;;;5088849;28;20553;-81
2023/03/04 11:27:54;;;;;;;1.60;1.40;;;8.20;98.20;;;;;;5069216;28;20866;-80
2023/03/04 11:30:36;;;;;;;1.50;1.20;;;8.10;98.20;;;;;;5083331;28;20462;-79
2023/03/04 11:33:13;;;;;;;1.60;1.20;;;8.10;98.20;;;;;;5077332;28;20484;-79
2023/03/04 11:35:48;;;;;;;1.50;1.10;;;8.00;98.20;;;;;;5088736;28;21011;-80
2023/03/04 11:38:19;;;;;;;1.50;1.20;;;8.00;98.20;;;;;;5068016;28;20484;-79
2023/03/04 11:40:52;;;;;;;1.57;1.20;;;8.00;98.20;;;;;;5090101;28;20639;-81
2023/03/04 11:43:25;;;;;;;1.60;1.20;;;8.00;98.20;;;;;;5056007;28;21188;-81
2023/03/04 11:46:30;;;;;;;1.53;1.10;;;8.00;98.20;;;;;;5076349;28;20460;-82
2023/03/04 11:49:16;;;;;;;1.50;1.20;;;8.20;98.20;;;;;;5061607;28;20475;-80
2023/03/04 11:51:58;;;;;;;1.60;1.30;;;8.40;98.20;;;;;;5069916;28;20529;-80
2023/03/04 11:54:35;;;;;;;1.50;1.20;;;8.60;98.20;;;;;;5082196;28;20479;-81
2023/03/04 11:57:11;;;;;;;1.50;1.10;;;8.90;98.20;;;;;;5076727;28;20488;-80
2023/03/04 11:59:56;;;;;;;1.53;1.10;;;9.10;98.20;;;;;;5081843;28;20469;-80
2023/03/04 12:02:32;;;;;;;1.60;1.20;;;9.20;98.20;;;;;;5080288;28;20946;-81
2023/03/04 12:05:20;;;;;;;1.53;1.10;;;9.20;98.20;;;;;;5085584;28;20461;-80
2023/03/04 12:08:00;;;;;;;1.60;1.30;;;9.10;98.20;;;;;;5078831;28;20564;-81
2023/03/04 12:10:32;;;;;;;1.53;1.20;;;9.00;98.20;;;;;;5082592;28;21151;-77
2023/03/04 12:13:42;;;;;;;1.57;1.20;;;8.90;98.20;;;;;;5069548;28;20558;-79
2023/03/04 12:16:28;;;;;;;1.60;1.10;;;8.90;98.20;;;;;;5074532;28;20563;-81
2023/03/04 12:19:10;;;;;;;1.60;1.20;;;8.80;98.20;;;;;;5087474;28;20495;-79
2023/03/04 12:21:58;;;;;;;1.57;1.10;;;8.90;98.20;;;;;;5070348;28;20488;-80
2023/03/04 12:24:52;;;;;;;1.53;1.20;;;8.90;98.20;;;;;;5093115;28;20531;-79
2023/03/04 12:27:27;;;;;;;1.50;1.10;;;9.00;98.20;;;;;;5055082;28;20495;-81
2023/03/04 12:30:16;;;;;;;1.57;1.17;;;9.10;98.20;;;;;;5089979;28;20455;-80
2023/03/04 12:32:50;;;;;;;1.70;1.50;;;9.20;98.20;;;;;;5074460;28;20486;-80
2023/03/04 12:35:28;;;;;;;1.50;1.20;;;9.20;98.20;;;;;;5086513;28;20585;-79
2023/03/04 12:38:08;;;;;;;1.60;1.20;;;9.20;98.20;;;;;;5076571;28;20484;-79
2023/03/04 12:40:42;;;;;;;1.53;1.17;;;9.10;98.20;;;;;;5090483;28;20466;-79
2023/03/04 12:43:35;;;;;;;1.50;1.13;;;9.10;98.20;;;;;;5069034;28;20488;-78
2023/03/04 12:46:18;;;;;;;1.50;1.10;;;9.00;98.20;;;;;;5066522;28;20468;-79
2023/03/04 12:48:56;;;;;;;1.50;1.10;;;9.00;98.20;;;;;;5082348;28;20511;-79
2023/03/04 12:51:30;;;;;;;1.57;1.13;;;9.00;98.20;;;;;;5073114;28;20472;-79
2023/03/04 12:54:12;;;;;;;1.57;1.20;;;9.00;98.20;;;;;;5084599;28;20538;-79
2023/03/04 12:56:43;;;;;;;1.53;1.20;;;9.10;98.20;;;;;;5061973;28;20480;-79
2023/03/04 12:59:15;;;;;;;1.57;1.10;;;9.30;98.20;;;;;;5082713;28;20595;-79
2023/03/04 13:01:51;;;;;;;1.60;1.20;;;9.40;98.20;;;;;;5074339;28;20574;-79
2023/03/04 13:04:23;;;;;;;1.60;1.30;;;9.50;98.20;;;;;;5080127;28;20459;-79
2023/03/04 13:07:07;;;;;;;1.50;1.10;;;9.50;98.20;;;;;;5074430;28;21097;-78
2023/03/04 13:09:38;;;;;;;1.60;1.27;;;9.50;98.20;;;;;;5077483;28;20481;-79
2023/03/04 13:12:15;;;;;;;1.60;1.20;;;9.50;98.20;;;;;;5068809;28;20485;-81